ウランバートル の空港の天気 - METARとTAF

チンギスハーン国際空港 ( ZMUB / ULN ) - モンゴル ウランバートル
飛行場実況気象(Metar)
観測時間05/27 19:30 ULAT (05/27 11:30 UTC)
風向・風速北 9m/s
視程10km以上
天気現象
少しの雲 雲底高度 1010m
気温11℃
湿度32%
気圧1014hPa
METARZMUB 271130Z 36009MPS 330V030 9999 FEW033 11/M05 Q1014 NOSIG RMK QFE653.6 31 MOP
過去の天気等 Google飛行場航空写真 Wunderground天気予報

過去48時間のMETAR

飛行場予報(TAF)
発表時間: 5/27 18:40 ULAT (5/27 10:40 UTC)
予報対象時間: 27日20時 ULAT ~ 29日2時 ULAT
風向・風速不定 2m/s
視程10km以上
全天の4割程度の雲 雲底高度 1010m
28日10時 ULAT ~ 28日12時 ULAT に徐々に
少しの積乱雲 雲底高度 910m
全天の8割程度の雲 雲底高度 1010m
TAF ZMUB 271040Z 2712/2818 VRB02MPS 9999 SCT033 TN01/2722Z TX20/2807Z
BECMG 2802/2804 FEW030CB BKN033